sensor_id;sensor_type;location;lat;lon;timestamp;pressure;altitude;pressure_sealevel;temperature;humidity
54122;BME280;40029;58.708;50.190;2022-08-03T00:01:52;100467.09;;;17.79;55.30
54122;BME280;40029;58.708;50.190;2022-08-03T00:04:23;100474.34;;;17.75;55.00
54122;BME280;40029;58.708;50.190;2022-08-03T00:06:54;100468.28;;;17.73;54.86
54122;BME280;40029;58.708;50.190;2022-08-03T00:09:25;100466.75;;;17.69;55.26
54122;BME280;40029;58.708;50.190;2022-08-03T00:11:56;100471.34;;;17.65;55.58
54122;BME280;40029;58.708;50.190;2022-08-03T00:14:27;100460.31;;;17.59;55.27
54122;BME280;40029;58.708;50.190;2022-08-03T00:16:58;100462.84;;;17.60;55.79
54122;BME280;40029;58.708;50.190;2022-08-03T00:19:29;100470.75;;;17.60;56.02
54122;BME280;40029;58.708;50.190;2022-08-03T00:22:00;100471.75;;;17.58;55.60
54122;BME280;40029;58.708;50.190;2022-08-03T00:24:31;100473.13;;;17.49;55.72
54122;BME280;40029;58.708;50.190;2022-08-03T00:27:02;100469.91;;;17.44;56.01
54122;BME280;40029;58.708;50.190;2022-08-03T00:29:33;100439.56;;;17.21;55.86
54122;BME280;40029;58.708;50.190;2022-08-03T00:32:04;100476.44;;;17.37;55.98
54122;BME280;40029;58.708;50.190;2022-08-03T00:34:35;100487.91;;;17.36;56.16
54122;BME280;40029;58.708;50.190;2022-08-03T00:37:06;100486.13;;;17.36;55.96
54122;BME280;40029;58.708;50.190;2022-08-03T00:39:37;100491.59;;;17.33;55.85
54122;BME280;40029;58.708;50.190;2022-08-03T00:42:08;100486.47;;;17.30;55.55
54122;BME280;40029;58.708;50.190;2022-08-03T00:44:43;100486.47;;;17.30;56.02
54122;BME280;40029;58.708;50.190;2022-08-03T00:47:14;100484.88;;;17.43;55.16
54122;BME280;40029;58.708;50.190;2022-08-03T00:49:45;100478.03;;;17.23;55.34
54122;BME280;40029;58.708;50.190;2022-08-03T00:52:16;100484.09;;;17.26;55.58
54122;BME280;40029;58.708;50.190;2022-08-03T00:54:47;100462.41;;;17.05;55.55
54122;BME280;40029;58.708;50.190;2022-08-03T00:57:18;100491.16;;;17.25;55.69
54122;BME280;40029;58.708;50.190;2022-08-03T00:59:49;100450.25;;;17.02;55.69
54122;BME280;40029;58.708;50.190;2022-08-03T01:02:21;100462.16;;;17.09;55.71
54122;BME280;40029;58.708;50.190;2022-08-03T01:04:52;100497.69;;;17.34;55.79
54122;BME280;40029;58.708;50.190;2022-08-03T01:07:36;100498.28;;;17.39;56.05
54122;BME280;40029;58.708;50.190;2022-08-03T01:13:02;100489.19;;;17.44;55.30
54122;BME280;40029;58.708;50.190;2022-08-03T01:15:39;100494.31;;;17.47;55.41
54122;BME280;40029;58.708;50.190;2022-08-03T01:18:23;100493.47;;;17.47;55.05
54122;BME280;40029;58.708;50.190;2022-08-03T01:20:56;100489.13;;;17.46;54.86
54122;BME280;40029;58.708;50.190;2022-08-03T01:23:49;100489.53;;;17.54;54.87
54122;BME280;40029;58.708;50.190;2022-08-03T01:26:36;100486.31;;;17.49;54.69
54122;BME280;40029;58.708;50.190;2022-08-03T01:32:13;100430.03;;;17.18;54.83
54122;BME280;40029;58.708;50.190;2022-08-03T01:34:58;100475.75;;;17.49;54.47
54122;BME280;40029;58.708;50.190;2022-08-03T01:37:57;100487.25;;;17.64;54.37
54122;BME280;40029;58.708;50.190;2022-08-03T01:40:33;100483.78;;;17.63;53.95
54122;BME280;40029;58.708;50.190;2022-08-03T01:43:08;100486.22;;;17.66;53.62
54122;BME280;40029;58.708;50.190;2022-08-03T01:45:42;100489.47;;;17.71;53.72
54122;BME280;40029;58.708;50.190;2022-08-03T01:48:15;100492.72;;;17.77;53.71
54122;BME280;40029;58.708;50.190;2022-08-03T01:50:48;100487.34;;;17.78;53.28
54122;BME280;40029;58.708;50.190;2022-08-03T01:53:20;100494.94;;;17.84;53.31
54122;BME280;40029;58.708;50.190;2022-08-03T01:55:53;100446.69;;;17.66;53.58
54122;BME280;40029;58.708;50.190;2022-08-03T01:58:25;100493.09;;;18.01;53.27
54122;BME280;40029;58.708;50.190;2022-08-03T02:00:59;100491.72;;;18.09;53.64
54122;BME280;40029;58.708;50.190;2022-08-03T02:03:36;100488.56;;;18.18;53.67
54122;BME280;40029;58.708;50.190;2022-08-03T02:06:12;100492.63;;;18.24;53.76
54122;BME280;40029;58.708;50.190;2022-08-03T02:08:44;100495.69;;;18.32;53.64
54122;BME280;40029;58.708;50.190;2022-08-03T02:11:16;100491.81;;;18.38;54.54
54122;BME280;40029;58.708;50.190;2022-08-03T02:13:49;100497.22;;;18.51;54.76
54122;BME280;40029;58.708;50.190;2022-08-03T02:16:22;100491.66;;;18.55;54.96
54122;BME280;40029;58.708;50.190;2022-08-03T02:18:55;100476.03;;;18.52;54.89
54122;BME280;40029;58.708;50.190;2022-08-03T02:21:29;100495.78;;;18.75;54.63
54122;BME280;40029;58.708;50.190;2022-08-03T02:24:03;100501.53;;;18.82;54.71
54122;BME280;40029;58.708;50.190;2022-08-03T02:26:35;100479.09;;;18.75;54.32
54122;BME280;40029;58.708;50.190;2022-08-03T02:29:14;100496.66;;;19.04;54.16
54122;BME280;40029;58.708;50.190;2022-08-03T02:31:49;100504.97;;;19.12;53.93
54122;BME280;40029;58.708;50.190;2022-08-03T02:34:21;100443.81;;;18.90;53.85
54122;BME280;40029;58.708;50.190;2022-08-03T02:36:57;100495.88;;;19.31;53.62
54122;BME280;40029;58.708;50.190;2022-08-03T02:39:33;100496.25;;;19.39;53.55
54122;BME280;40029;58.708;50.190;2022-08-03T02:42:08;100494.72;;;19.49;53.28
54122;BME280;40029;58.708;50.190;2022-08-03T02:44:40;100497.31;;;19.78;52.33
54122;BME280;40029;58.708;50.190;2022-08-03T02:47:18;100489.16;;;19.68;52.23
54122;BME280;40029;58.708;50.190;2022-08-03T02:49:51;100492.22;;;19.75;52.01
54122;BME280;40029;58.708;50.190;2022-08-03T02:52:26;100502.00;;;19.87;51.99
54122;BME280;40029;58.708;50.190;2022-08-03T02:54:59;100503.31;;;19.94;51.47
54122;BME280;40029;58.708;50.190;2022-08-03T02:57:35;100491.78;;;19.95;51.29
54122;BME280;40029;58.708;50.190;2022-08-03T03:00:07;100501.56;;;20.07;50.67
54122;BME280;40029;58.708;50.190;2022-08-03T03:02:39;100489.94;;;20.10;50.52
54122;BME280;40029;58.708;50.190;2022-08-03T03:05:11;100508.84;;;20.31;49.95
54122;BME280;40029;58.708;50.190;2022-08-03T03:07:42;100507.69;;;20.35;49.70
54122;BME280;40029;58.708;50.190;2022-08-03T03:10:14;100457.88;;;20.14;49.35
54122;BME280;40029;58.708;50.190;2022-08-03T03:12:45;100505.72;;;20.51;49.07
54122;BME280;40029;58.708;50.190;2022-08-03T03:15:18;100501.72;;;20.58;48.75
54122;BME280;40029;58.708;50.190;2022-08-03T03:17:50;100512.00;;;20.76;48.19
54122;BME280;40029;58.708;50.190;2022-08-03T03:20:23;100514.56;;;20.90;47.42
54122;BME280;40029;58.708;50.190;2022-08-03T03:22:55;100511.28;;;20.99;46.87
54122;BME280;40029;58.708;50.190;2022-08-03T03:25:30;100513.47;;;21.18;45.98
54122;BME280;40029;58.708;50.190;2022-08-03T03:28:02;100516.00;;;21.19;45.64
54122;BME280;40029;58.708;50.190;2022-08-03T03:30:33;100514.97;;;21.35;45.10
54122;BME280;40029;58.708;50.190;2022-08-03T03:33:05;100514.94;;;21.48;44.51
54122;BME280;40029;58.708;50.190;2022-08-03T03:35:37;100504.50;;;21.57;44.06
54122;BME280;40029;58.708;50.190;2022-08-03T03:38:10;100509.25;;;21.65;43.52
54122;BME280;40029;58.708;50.190;2022-08-03T03:40:41;100511.22;;;21.74;43.34
54122;BME280;40029;58.708;50.190;2022-08-03T03:43:13;100505.38;;;21.82;42.38
54122;BME280;40029;58.708;50.190;2022-08-03T03:45:44;100495.28;;;21.87;42.41
54122;BME280;40029;58.708;50.190;2022-08-03T03:48:17;100516.63;;;22.09;41.56
54122;BME280;40029;58.708;50.190;2022-08-03T03:50:49;100508.72;;;22.20;41.05
54122;BME280;40029;58.708;50.190;2022-08-03T03:53:20;100516.97;;;22.29;40.97
54122;BME280;40029;58.708;50.190;2022-08-03T03:55:52;100493.63;;;22.21;40.97
54122;BME280;40029;58.708;50.190;2022-08-03T03:58:23;100521.84;;;22.46;40.76
54122;BME280;40029;58.708;50.190;2022-08-03T04:00:54;100520.91;;;22.58;40.32
54122;BME280;40029;58.708;50.190;2022-08-03T04:03:26;100519.00;;;22.71;40.13
54122;BME280;40029;58.708;50.190;2022-08-03T04:05:57;100517.38;;;22.82;39.98
54122;BME280;40029;58.708;50.190;2022-08-03T04:08:46;100519.19;;;22.92;39.53
54122;BME280;40029;58.708;50.190;2022-08-03T04:11:39;100521.75;;;23.05;39.46
54122;BME280;40029;58.708;50.190;2022-08-03T04:14:18;100525.63;;;23.12;39.13
54122;BME280;40029;58.708;50.190;2022-08-03T04:16:58;100520.94;;;23.16;38.66
54122;BME280;40029;58.708;50.190;2022-08-03T04:19:47;100523.47;;;23.29;38.97
54122;BME280;40029;58.708;50.190;2022-08-03T04:22:24;100526.47;;;23.35;38.29
54122;BME280;40029;58.708;50.190;2022-08-03T04:25:03;100501.22;;;23.18;38.08
54122;BME280;40029;58.708;50.190;2022-08-03T04:27:39;100532.88;;;23.44;37.74
54122;BME280;40029;58.708;50.190;2022-08-03T04:30:11;100521.63;;;23.40;37.84
54122;BME280;40029;58.708;50.190;2022-08-03T04:32:44;100535.88;;;23.51;37.87
54122;BME280;40029;58.708;50.190;2022-08-03T04:35:24;100535.16;;;23.60;37.52
54122;BME280;40029;58.708;50.190;2022-08-03T04:38:02;100539.66;;;23.71;37.28
54122;BME280;40029;58.708;50.190;2022-08-03T04:40:39;100535.28;;;23.81;37.01
54122;BME280;40029;58.708;50.190;2022-08-03T04:43:12;100510.50;;;23.69;36.63
54122;BME280;40029;58.708;50.190;2022-08-03T04:45:46;100533.75;;;23.99;36.51
54122;BME280;40029;58.708;50.190;2022-08-03T04:48:19;100533.28;;;24.05;36.65
54122;BME280;40029;58.708;50.190;2022-08-03T04:50:50;100535.31;;;24.13;36.61
54122;BME280;40029;58.708;50.190;2022-08-03T04:53:22;100533.94;;;24.18;36.83
54122;BME280;40029;58.708;50.190;2022-08-03T04:55:53;100532.94;;;24.31;36.54
54122;BME280;40029;58.708;50.190;2022-08-03T04:58:24;100526.03;;;24.39;36.12
54122;BME280;40029;58.708;50.190;2022-08-03T05:00:55;100526.09;;;24.49;35.38
54122;BME280;40029;58.708;50.190;2022-08-03T05:03:26;100530.53;;;24.60;35.60
54122;BME280;40029;58.708;50.190;2022-08-03T05:05:57;100533.03;;;24.61;35.26
54122;BME280;40029;58.708;50.190;2022-08-03T05:08:28;100534.78;;;24.72;35.37
54122;BME280;40029;58.708;50.190;2022-08-03T05:10:59;100522.63;;;24.79;34.85
54122;BME280;40029;58.708;50.190;2022-08-03T05:13:30;100522.41;;;24.92;33.88
54122;BME280;40029;58.708;50.190;2022-08-03T05:16:01;100500.47;;;24.79;33.35
54122;BME280;40029;58.708;50.190;2022-08-03T05:18:32;100528.53;;;25.04;33.36
54122;BME280;40029;58.708;50.190;2022-08-03T05:21:05;100538.69;;;25.10;32.95
54122;BME280;40029;58.708;50.190;2022-08-03T05:23:36;100535.25;;;25.19;32.41
54122;BME280;40029;58.708;50.190;2022-08-03T05:26:07;100536.38;;;25.26;31.92
54122;BME280;40029;58.708;50.190;2022-08-03T05:28:38;100536.69;;;25.33;31.70
54122;BME280;40029;58.708;50.190;2022-08-03T05:31:09;100541.47;;;25.39;31.47
54122;BME280;40029;58.708;50.190;2022-08-03T05:33:41;100538.28;;;25.45;31.46
54122;BME280;40029;58.708;50.190;2022-08-03T05:36:14;100542.81;;;25.54;31.58
54122;BME280;40029;58.708;50.190;2022-08-03T05:38:45;100536.78;;;25.62;31.83
54122;BME280;40029;58.708;50.190;2022-08-03T05:41:16;100540.31;;;25.72;30.90
54122;BME280;40029;58.708;50.190;2022-08-03T05:43:47;100543.19;;;25.80;30.67
54122;BME280;40029;58.708;50.190;2022-08-03T05:46:18;100549.25;;;25.92;30.59
54122;BME280;40029;58.708;50.190;2022-08-03T05:48:50;100538.72;;;26.00;30.39
54122;BME280;40029;58.708;50.190;2022-08-03T05:51:22;100539.25;;;26.04;28.95
54122;BME280;40029;58.708;50.190;2022-08-03T05:53:53;100541.53;;;26.08;28.79
54122;BME280;40029;58.708;50.190;2022-08-03T05:56:24;100527.88;;;26.11;29.21
54122;BME280;40029;58.708;50.190;2022-08-03T05:58:55;100534.09;;;26.22;29.27
54122;BME280;40029;58.708;50.190;2022-08-03T06:01:26;100541.38;;;26.29;28.57
54122;BME280;40029;58.708;50.190;2022-08-03T06:03:57;100532.66;;;26.37;27.22
54122;BME280;40029;58.708;50.190;2022-08-03T06:06:28;100534.78;;;26.43;27.45
54122;BME280;40029;58.708;50.190;2022-08-03T06:08:59;100535.91;;;26.50;27.15
54122;BME280;40029;58.708;50.190;2022-08-03T06:11:30;100537.75;;;26.59;27.05
54122;BME280;40029;58.708;50.190;2022-08-03T06:14:02;100538.19;;;26.64;26.24
54122;BME280;40029;58.708;50.190;2022-08-03T06:16:33;100539.00;;;26.65;25.43
54122;BME280;40029;58.708;50.190;2022-08-03T06:19:05;100536.19;;;26.76;25.78
54122;BME280;40029;58.708;50.190;2022-08-03T06:21:36;100532.34;;;26.88;25.50
54122;BME280;40029;58.708;50.190;2022-08-03T06:24:07;100535.69;;;27.00;25.77
54122;BME280;40029;58.708;50.190;2022-08-03T06:26:38;100529.78;;;27.06;24.42
54122;BME280;40029;58.708;50.190;2022-08-03T06:29:09;100522.56;;;27.16;24.72
54122;BME280;40029;58.708;50.190;2022-08-03T06:31:40;100513.25;;;27.21;24.39
54122;BME280;40029;58.708;50.190;2022-08-03T06:34:11;100527.84;;;27.36;24.43
54122;BME280;40029;58.708;50.190;2022-08-03T06:36:42;100508.66;;;27.40;23.85
54122;BME280;40029;58.708;50.190;2022-08-03T06:39:13;100522.53;;;27.54;23.93
54122;BME280;40029;58.708;50.190;2022-08-03T06:41:44;100519.50;;;27.66;23.49
54122;BME280;40029;58.708;50.190;2022-08-03T06:44:15;100518.91;;;27.73;23.36
54122;BME280;40029;58.708;50.190;2022-08-03T06:46:46;100519.75;;;27.73;22.48
54122;BME280;40029;58.708;50.190;2022-08-03T06:49:17;100521.69;;;27.81;21.60
54122;BME280;40029;58.708;50.190;2022-08-03T06:51:49;100526.28;;;27.88;20.90
54122;BME280;40029;58.708;50.190;2022-08-03T06:54:23;100521.72;;;27.71;20.91
54122;BME280;40029;58.708;50.190;2022-08-03T06:56:54;100517.22;;;27.72;21.28
54122;BME280;40029;58.708;50.190;2022-08-03T06:59:25;100526.03;;;27.82;20.49
54122;BME280;40029;58.708;50.190;2022-08-03T07:01:56;100524.06;;;27.84;20.93
54122;BME280;40029;58.708;50.190;2022-08-03T07:04:27;100528.28;;;27.86;20.59
54122;BME280;40029;58.708;50.190;2022-08-03T07:06:58;100532.75;;;27.96;20.37
54122;BME280;40029;58.708;50.190;2022-08-03T07:09:29;100493.13;;;27.72;20.29
54122;BME280;40029;58.708;50.190;2022-08-03T07:12:01;100498.59;;;27.80;20.68
54122;BME280;40029;58.708;50.190;2022-08-03T07:14:34;100517.72;;;27.85;20.35
54122;BME280;40029;58.708;50.190;2022-08-03T07:17:04;100529.72;;;27.81;20.85
54122;BME280;40029;58.708;50.190;2022-08-03T07:19:35;100524.69;;;27.68;20.95
54122;BME280;40029;58.708;50.190;2022-08-03T07:22:06;100522.22;;;27.57;21.35
54122;BME280;40029;58.708;50.190;2022-08-03T07:24:38;100529.03;;;27.51;21.35
54122;BME280;40029;58.708;50.190;2022-08-03T07:27:09;100538.63;;;27.44;21.47
54122;BME280;40029;58.708;50.190;2022-08-03T07:29:40;100523.00;;;27.49;21.72
54122;BME280;40029;58.708;50.190;2022-08-03T07:32:11;100520.53;;;27.56;21.46
54122;BME280;40029;58.708;50.190;2022-08-03T07:34:42;100526.28;;;27.61;21.25
54122;BME280;40029;58.708;50.190;2022-08-03T07:37:13;100523.81;;;27.77;21.01
54122;BME280;40029;58.708;50.190;2022-08-03T07:39:44;100516.97;;;27.93;20.90
54122;BME280;40029;58.708;50.190;2022-08-03T07:42:15;100480.22;;;27.85;21.33
54122;BME280;40029;58.708;50.190;2022-08-03T07:44:46;100497.75;;;27.97;20.68
54122;BME280;40029;58.708;50.190;2022-08-03T07:47:18;100488.97;;;28.05;20.47
54122;BME280;40029;58.708;50.190;2022-08-03T07:49:50;100526.22;;;28.34;20.26
54122;BME280;40029;58.708;50.190;2022-08-03T07:52:21;100515.50;;;28.34;19.74
54122;BME280;40029;58.708;50.190;2022-08-03T07:55:29;100530.06;;;28.49;19.13
54122;BME280;40029;58.708;50.190;2022-08-03T08:00:32;100527.84;;;28.45;19.56
54122;BME280;40029;58.708;50.190;2022-08-03T08:03:04;100501.66;;;28.21;19.41
54122;BME280;40029;58.708;50.190;2022-08-03T08:05:35;100520.47;;;28.29;18.95
54122;BME280;40029;58.708;50.190;2022-08-03T08:08:07;100508.69;;;28.22;18.79
54122;BME280;40029;58.708;50.190;2022-08-03T08:10:39;100505.19;;;28.21;19.57
54122;BME280;40029;58.708;50.190;2022-08-03T08:13:10;100529.88;;;28.33;20.03
54122;BME280;40029;58.708;50.190;2022-08-03T08:15:41;100526.84;;;28.46;19.88
54122;BME280;40029;58.708;50.190;2022-08-03T08:18:12;100530.41;;;28.54;19.85
54122;BME280;40029;58.708;50.190;2022-08-03T08:20:43;100526.13;;;28.61;19.61
54122;BME280;40029;58.708;50.190;2022-08-03T08:23:14;100530.41;;;28.72;19.22
54122;BME280;40029;58.708;50.190;2022-08-03T08:25:47;100534.81;;;28.81;18.51
54122;BME280;40029;58.708;50.190;2022-08-03T08:28:20;100520.09;;;28.85;18.62
54122;BME280;40029;58.708;50.190;2022-08-03T08:30:51;100524.50;;;28.95;18.71
54122;BME280;40029;58.708;50.190;2022-08-03T08:33:22;100527.94;;;29.05;18.87
54122;BME280;40029;58.708;50.190;2022-08-03T08:35:53;100528.31;;;29.10;18.83
54122;BME280;40029;58.708;50.190;2022-08-03T08:38:24;100525.94;;;29.07;19.41
54122;BME280;40029;58.708;50.190;2022-08-03T08:40:55;100530.53;;;29.14;19.06
54122;BME280;40029;58.708;50.190;2022-08-03T08:43:27;100522.84;;;29.20;18.97
54122;BME280;40029;58.708;50.190;2022-08-03T08:45:58;100527.88;;;29.23;18.78
54122;BME280;40029;58.708;50.190;2022-08-03T08:48:29;100528.19;;;29.20;18.23
54122;BME280;40029;58.708;50.190;2022-08-03T08:51:02;100531.16;;;29.08;18.34
54122;BME280;40029;58.708;50.190;2022-08-03T08:53:35;100532.63;;;29.03;17.84
54122;BME280;40029;58.708;50.190;2022-08-03T08:56:07;100539.59;;;28.96;18.21
54122;BME280;40029;58.708;50.190;2022-08-03T08:58:52;100534.63;;;29.01;19.11
54122;BME280;40029;58.708;50.190;2022-08-03T09:01:23;100543.47;;;28.93;20.13
54122;BME280;40029;58.708;50.190;2022-08-03T09:03:54;100539.22;;;28.90;20.28
54122;BME280;40029;58.708;50.190;2022-08-03T09:06:26;100537.97;;;28.77;19.78
54122;BME280;40029;58.708;50.190;2022-08-03T09:08:57;100536.56;;;28.64;20.64
54122;BME280;40029;58.708;50.190;2022-08-03T09:11:28;100536.28;;;28.76;21.19
54122;BME280;40029;58.708;50.190;2022-08-03T09:13:59;100540.25;;;28.89;20.55
54122;BME280;40029;58.708;50.190;2022-08-03T09:16:30;100539.31;;;28.99;19.41
54122;BME280;40029;58.708;50.190;2022-08-03T09:19:19;100531.53;;;28.96;19.08
54122;BME280;40029;58.708;50.190;2022-08-03T09:22:07;100524.06;;;28.99;18.02
54122;BME280;40029;58.708;50.190;2022-08-03T09:25:04;100527.66;;;29.16;18.01
54122;BME280;40029;58.708;50.190;2022-08-03T09:27:44;100516.31;;;29.30;17.87
54122;BME280;40029;58.708;50.190;2022-08-03T09:30:17;100516.88;;;29.42;17.89
54122;BME280;40029;58.708;50.190;2022-08-03T09:32:48;100521.34;;;29.68;17.48
54122;BME280;40029;58.708;50.190;2022-08-03T09:35:26;100528.09;;;29.80;18.32
54122;BME280;40029;58.708;50.190;2022-08-03T09:40:48;100522.94;;;30.03;17.78
54122;BME280;40029;58.708;50.190;2022-08-03T09:43:20;100532.72;;;30.20;17.18
54122;BME280;40029;58.708;50.190;2022-08-03T09:46:02;100523.81;;;30.28;16.97
54122;BME280;40029;58.708;50.190;2022-08-03T09:48:33;100528.03;;;30.22;17.21
54122;BME280;40029;58.708;50.190;2022-08-03T09:51:06;100520.56;;;29.83;17.70
54122;BME280;40029;58.708;50.190;2022-08-03T09:53:45;100526.09;;;29.90;17.03
54122;BME280;40029;58.708;50.190;2022-08-03T09:56:16;100532.28;;;29.66;17.14
54122;BME280;40029;58.708;50.190;2022-08-03T09:58:47;100525.06;;;29.67;16.85
54122;BME280;40029;58.708;50.190;2022-08-03T10:01:18;100525.88;;;29.67;17.00
54122;BME280;40029;58.708;50.190;2022-08-03T10:03:57;100529.38;;;29.59;17.00
54122;BME280;40029;58.708;50.190;2022-08-03T10:06:29;100535.03;;;29.48;17.67
54122;BME280;40029;58.708;50.190;2022-08-03T10:09:14;100522.72;;;29.72;17.01
54122;BME280;40029;58.708;50.190;2022-08-03T10:11:46;100515.66;;;29.71;17.27
54122;BME280;40029;58.708;50.190;2022-08-03T10:14:17;100514.88;;;29.52;16.80
54122;BME280;40029;58.708;50.190;2022-08-03T10:16:52;100521.50;;;29.58;17.23
54122;BME280;40029;58.708;50.190;2022-08-03T10:19:23;100518.03;;;29.74;16.57
54122;BME280;40029;58.708;50.190;2022-08-03T10:21:57;100527.13;;;29.97;16.33
54122;BME280;40029;58.708;50.190;2022-08-03T10:24:33;100517.94;;;30.24;16.48
54122;BME280;40029;58.708;50.190;2022-08-03T10:27:07;100523.81;;;30.36;15.87
54122;BME280;40029;58.708;50.190;2022-08-03T10:29:43;100516.72;;;30.10;15.99
54122;BME280;40029;58.708;50.190;2022-08-03T10:32:21;100523.44;;;29.98;16.69
54122;BME280;40029;58.708;50.190;2022-08-03T10:34:58;100524.44;;;29.97;16.86
54122;BME280;40029;58.708;50.190;2022-08-03T10:37:40;100529.16;;;30.11;17.46
54122;BME280;40029;58.708;50.190;2022-08-03T10:40:14;100522.66;;;30.30;17.41
54122;BME280;40029;58.708;50.190;2022-08-03T10:42:50;100519.28;;;30.45;16.76
54122;BME280;40029;58.708;50.190;2022-08-03T10:45:26;100520.94;;;30.70;16.68
54122;BME280;40029;58.708;50.190;2022-08-03T10:47:58;100518.41;;;30.93;16.42
54122;BME280;40029;58.708;50.190;2022-08-03T10:50:30;100511.69;;;30.89;15.88
54122;BME280;40029;58.708;50.190;2022-08-03T10:53:05;100521.38;;;31.15;16.10
54122;BME280;40029;58.708;50.190;2022-08-03T10:55:40;100514.47;;;31.12;15.31
54122;BME280;40029;58.708;50.190;2022-08-03T11:01:08;100521.00;;;31.18;15.31
54122;BME280;40029;58.708;50.190;2022-08-03T11:06:24;100515.47;;;31.19;15.83
54122;BME280;40029;58.708;50.190;2022-08-03T11:11:44;100524.06;;;31.31;15.81
54122;BME280;40029;58.708;50.190;2022-08-03T11:14:17;100511.66;;;31.05;14.73
54122;BME280;40029;58.708;50.190;2022-08-03T11:17:05;100511.69;;;30.97;14.72
54122;BME280;40029;58.708;50.190;2022-08-03T11:19:44;100501.28;;;30.86;14.41
54122;BME280;40029;58.708;50.190;2022-08-03T11:22:16;100504.81;;;30.86;14.17
54122;BME280;40029;58.708;50.190;2022-08-03T11:27:28;100506.41;;;31.12;14.28
54122;BME280;40029;58.708;50.190;2022-08-03T11:30:10;100500.47;;;31.25;13.96
54122;BME280;40029;58.708;50.190;2022-08-03T11:46:08;100507.47;;;32.65;12.66
54122;BME280;40029;58.708;50.190;2022-08-03T11:48:49;100497.38;;;33.12;12.24
54122;BME280;40029;58.708;50.190;2022-08-03T11:51:28;100495.78;;;33.83;9.94
54122;BME280;40029;58.708;50.190;2022-08-03T11:54:01;100501.06;;;34.55;9.92
54122;BME280;40029;58.708;50.190;2022-08-03T11:56:44;100502.94;;;35.18;9.04
54122;BME280;40029;58.708;50.190;2022-08-03T11:59:16;100502.88;;;35.52;8.72
54122;BME280;40029;58.708;50.190;2022-08-03T12:01:48;100497.75;;;35.84;7.70
54122;BME280;40029;58.708;50.190;2022-08-03T12:04:19;100492.81;;;36.08;6.90
54122;BME280;40029;58.708;50.190;2022-08-03T12:07:00;100492.19;;;36.59;6.14
54122;BME280;40029;58.708;50.190;2022-08-03T12:09:31;100495.50;;;36.74;6.48
54122;BME280;40029;58.708;50.190;2022-08-03T12:12:05;100493.16;;;36.91;6.60
54122;BME280;40029;58.708;50.190;2022-08-03T12:14:36;100475.88;;;36.65;5.87
54122;BME280;40029;58.708;50.190;2022-08-03T12:17:07;100489.00;;;36.95;6.46
54122;BME280;40029;58.708;50.190;2022-08-03T12:19:42;100493.00;;;36.92;6.76
54122;BME280;40029;58.708;50.190;2022-08-03T12:22:13;100494.91;;;36.59;6.23
54122;BME280;40029;58.708;50.190;2022-08-03T12:24:46;100486.56;;;36.34;5.73
54122;BME280;40029;58.708;50.190;2022-08-03T12:27:24;100493.03;;;36.59;7.06
54122;BME280;40029;58.708;50.190;2022-08-03T12:29:58;100491.94;;;36.73;6.62
54122;BME280;40029;58.708;50.190;2022-08-03T12:32:30;100494.84;;;37.05;5.98
54122;BME280;40029;58.708;50.190;2022-08-03T12:35:01;100490.66;;;36.83;5.64
54122;BME280;40029;58.708;50.190;2022-08-03T12:37:35;100494.72;;;36.53;6.41
54122;BME280;40029;58.708;50.190;2022-08-03T12:40:06;100490.28;;;36.72;7.28
54122;BME280;40029;58.708;50.190;2022-08-03T12:42:41;100494.25;;;36.83;6.49
54122;BME280;40029;58.708;50.190;2022-08-03T12:45:25;100489.00;;;36.88;5.60
54122;BME280;40029;58.708;50.190;2022-08-03T12:47:58;100476.41;;;37.14;5.00
54122;BME280;40029;58.708;50.190;2022-08-03T12:50:32;100480.97;;;37.20;5.49
54122;BME280;40029;58.708;50.190;2022-08-03T12:53:05;100475.94;;;37.30;5.61
54122;BME280;40029;58.708;50.190;2022-08-03T12:55:37;100475.94;;;37.30;5.35
54122;BME280;40029;58.708;50.190;2022-08-03T12:58:28;100480.53;;;37.68;5.60
54122;BME280;40029;58.708;50.190;2022-08-03T13:01:03;100475.72;;;37.70;5.92
54122;BME280;40029;58.708;50.190;2022-08-03T13:03:47;100482.34;;;37.87;5.68
54122;BME280;40029;58.708;50.190;2022-08-03T13:06:22;100477.59;;;38.08;6.27
54122;BME280;40029;58.708;50.190;2022-08-03T13:09:06;100483.28;;;37.99;6.26
54122;BME280;40029;58.708;50.190;2022-08-03T13:11:38;100481.66;;;37.92;6.55
54122;BME280;40029;58.708;50.190;2022-08-03T13:14:08;100484.41;;;37.92;6.90
54122;BME280;40029;58.708;50.190;2022-08-03T13:16:40;100482.56;;;37.79;6.40
54122;BME280;40029;58.708;50.190;2022-08-03T13:19:11;100475.19;;;37.55;6.96
54122;BME280;40029;58.708;50.190;2022-08-03T13:21:42;100449.19;;;37.20;6.32
54122;BME280;40029;58.708;50.190;2022-08-03T13:24:14;100478.78;;;36.77;5.98
54122;BME280;40029;58.708;50.190;2022-08-03T13:26:45;100475.16;;;37.10;5.03
54122;BME280;40029;58.708;50.190;2022-08-03T13:29:16;100481.47;;;36.90;5.47
54122;BME280;40029;58.708;50.190;2022-08-03T13:31:47;100471.88;;;36.81;5.64
54122;BME280;40029;58.708;50.190;2022-08-03T13:34:18;100484.84;;;36.92;5.58
54122;BME280;40029;58.708;50.190;2022-08-03T13:36:52;100471.41;;;37.04;6.37
54122;BME280;40029;58.708;50.190;2022-08-03T13:39:24;100481.03;;;37.07;6.29
54122;BME280;40029;58.708;50.190;2022-08-03T13:41:55;100475.00;;;37.05;6.92
54122;BME280;40029;58.708;50.190;2022-08-03T13:44:26;100475.78;;;37.12;5.99
54122;BME280;40029;58.708;50.190;2022-08-03T13:46:57;100469.75;;;36.90;5.64
54122;BME280;40029;58.708;50.190;2022-08-03T13:49:30;100476.72;;;36.66;5.67